Time;durP1;ratioP1;P1;durP2;ratioP2;P2;SDS_P1;SDS_P2;PMS_P1;PMS_P2;Temp;Humidity;BMP_temperature;BMP_pressure;BME280_temperature;BME280_humidity;BME280_pressure;Samples;Min_cycle;Max_cycle;Signal;HPM_P1;HPM_P2
2023/10/10 00:02:05;;;;;;;23.53;19.53;;;;;;;;;;5056737;28;20228;-80
2023/10/10 00:04:33;;;;;;;29.27;20.43;;;;;;;;;;5039310;28;20211;-80
2023/10/10 00:07:01;;;;;;;31.97;21.53;;;;;;;;;;5057111;28;20186;-80
2023/10/10 00:09:27;;;;;;;33.80;23.07;;;;;;;;;;5059283;28;20175;-80
2023/10/10 00:11:53;;;;;;;31.20;22.50;;;;;;;;;;5054166;28;20199;-80
2023/10/10 00:14:19;;;;;;;30.63;21.40;;;;;;;;;;5055569;28;20187;-81
2023/10/10 00:16:54;;;;;;;26.17;21.57;;;;;;;;;;5055979;28;20191;-81
2023/10/10 00:19:37;;;;;;;27.27;21.20;;;;;;;;;;5056400;28;20183;-81
2023/10/10 00:22:05;;;;;;;25.77;20.57;;;;;;;;;;5055537;28;20183;-81
2023/10/10 00:24:32;;;;;;;31.83;21.57;;;;;;;;;;5056011;28;20179;-81
2023/10/10 00:26:59;;;;;;;25.60;20.90;;;;;;;;;;5056154;28;20183;-81
2023/10/10 00:29:26;;;;;;;26.67;21.70;;;;;;;;;;5072725;28;20186;-81
2023/10/10 00:31:56;;;;;;;24.80;21.57;;;;;;;;;;5056062;28;20206;-81
2023/10/10 00:34:24;;;;;;;28.50;22.80;;;;;;;;;;5039775;28;20187;-81
2023/10/10 00:36:58;;;;;;;30.00;21.80;;;;;;;;;;5055479;28;20199;-81
2023/10/10 00:39:30;;;;;;;29.37;22.40;;;;;;;;;;5062231;28;20174;-81
2023/10/10 00:42:04;;;;;;;28.27;21.50;;;;;;;;;;5058085;28;20226;-82
2023/10/10 00:44:30;;;;;;;32.60;22.60;;;;;;;;;;5047031;28;20218;-81
2023/10/10 00:46:57;;;;;;;27.87;23.80;;;;;;;;;;5074572;28;20190;-81
2023/10/10 00:49:25;;;;;;;29.33;23.83;;;;;;;;;;5062511;28;20180;-81
2023/10/10 00:51:53;;;;;;;31.10;23.97;;;;;;;;;;5069267;28;20183;-81
2023/10/10 00:56:54;;;;;;;31.03;24.67;;;;;;;;;;5077470;28;20277;-81
2023/10/10 00:59:54;;;;;;;32.77;24.43;;;;;;;;;;5059645;28;20175;-81
2023/10/10 01:02:20;;;;;;;32.33;24.30;;;;;;;;;;5076561;28;20208;-81
2023/10/10 01:07:20;;;;;;;30.30;23.17;;;;;;;;;;5077966;28;20179;-81
2023/10/10 01:09:56;;;;;;;31.57;23.17;;;;;;;;;;5043055;28;20187;-81
2023/10/10 01:12:23;;;;;;;27.00;23.60;;;;;;;;;;5046321;28;20205;-82
2023/10/10 01:14:54;;;;;;;26.00;22.70;;;;;;;;;;5069095;28;20228;-82
2023/10/10 01:17:25;;;;;;;26.70;22.70;;;;;;;;;;5079267;28;20182;-81
2023/10/10 01:19:51;;;;;;;27.60;23.93;;;;;;;;;;5079688;28;20390;-81
2023/10/10 01:22:37;;;;;;;32.00;25.17;;;;;;;;;;5061084;28;20195;-81
2023/10/10 01:25:14;;;;;;;29.80;23.50;;;;;;;;;;5058493;28;20199;-81
2023/10/10 01:27:43;;;;;;;28.93;24.57;;;;;;;;;;5044263;28;20266;-81
2023/10/10 01:30:57;;;;;;;31.83;24.73;;;;;;;;;;5059241;28;20183;-81
2023/10/10 01:33:01;;;;;;;30.10;25.47;;;;;;;;;;5060667;28;20242;-81
2023/10/10 01:35:27;;;;;;;31.77;24.27;;;;;;;;;;5050714;28;20298;-81
2023/10/10 01:37:54;;;;;;;28.60;24.27;;;;;;;;;;5043814;28;20210;-81
2023/10/10 01:40:23;;;;;;;30.00;24.10;;;;;;;;;;5048822;28;20187;-81
2023/10/10 01:42:53;;;;;;;25.40;22.77;;;;;;;;;;5051183;28;20244;-81
2023/10/10 01:45:27;;;;;;;25.07;22.33;;;;;;;;;;5036013;28;20212;-82
2023/10/10 01:48:11;;;;;;;29.57;23.63;;;;;;;;;;5052341;28;20252;-82
2023/10/10 01:50:38;;;;;;;30.50;23.47;;;;;;;;;;5058313;28;20179;-82
2023/10/10 01:53:06;;;;;;;32.00;23.93;;;;;;;;;;5062151;28;20185;-82
2023/10/10 01:55:32;;;;;;;29.83;23.43;;;;;;;;;;5036011;28;20195;-82
2023/10/10 01:58:01;;;;;;;27.17;22.53;;;;;;;;;;5034745;28;20272;-81
2023/10/10 02:00:27;;;;;;;26.07;21.57;;;;;;;;;;5036348;28;20182;-82
2023/10/10 02:02:55;;;;;;;26.57;20.20;;;;;;;;;;5055146;28;20188;-82
2023/10/10 02:08:00;;;;;;;24.47;20.53;;;;;;;;;;5050462;28;20195;-82
2023/10/10 02:10:32;;;;;;;23.37;19.97;;;;;;;;;;5035422;28;20204;-82
2023/10/10 02:13:05;;;;;;;28.47;20.97;;;;;;;;;;5019091;28;20189;-81
2023/10/10 02:15:36;;;;;;;27.23;20.33;;;;;;;;;;5021063;28;20192;-81
2023/10/10 02:18:05;;;;;;;24.17;18.80;;;;;;;;;;5035709;28;20184;-81
2023/10/10 02:20:50;;;;;;;24.17;19.67;;;;;;;;;;5019071;28;20181;-82
2023/10/10 02:23:32;;;;;;;24.90;19.93;;;;;;;;;;5015437;28;20197;-81
2023/10/10 02:26:07;;;;;;;24.43;20.60;;;;;;;;;;5043254;28;20247;-81
2023/10/10 02:28:48;;;;;;;21.60;19.10;;;;;;;;;;5071044;28;20191;-81
2023/10/10 02:31:16;;;;;;;26.33;19.37;;;;;;;;;;5068136;28;20189;-82
2023/10/10 02:33:48;;;;;;;26.03;20.47;;;;;;;;;;5051379;28;20180;-82
2023/10/10 02:36:15;;;;;;;25.57;21.07;;;;;;;;;;5051548;28;20205;-81
2023/10/10 02:38:54;;;;;;;25.70;21.13;;;;;;;;;;5035275;28;20185;-81
2023/10/10 02:43:56;;;;;;;27.33;19.53;;;;;;;;;;5059746;28;20234;-81
2023/10/10 02:46:34;;;;;;;20.73;18.50;;;;;;;;;;5057733;28;20210;-81
2023/10/10 02:49:13;;;;;;;21.27;17.47;;;;;;;;;;5057347;28;20187;-81
2023/10/10 02:51:48;;;;;;;24.37;19.10;;;;;;;;;;5062781;28;20190;-81
2023/10/10 02:54:33;;;;;;;21.57;18.13;;;;;;;;;;5050777;28;20295;-81
2023/10/10 02:57:26;;;;;;;22.53;18.03;;;;;;;;;;5065712;28;20186;-81
2023/10/10 02:59:50;;;;;;;24.10;18.27;;;;;;;;;;5079600;28;20204;-81
2023/10/10 03:02:20;;;;;;;21.90;18.43;;;;;;;;;;5041099;28;20187;-81
2023/10/10 03:05:03;;;;;;;23.40;18.37;;;;;;;;;;5041576;28;20215;-81
2023/10/10 03:07:31;;;;;;;20.40;17.27;;;;;;;;;;5042666;28;20186;-81
2023/10/10 03:12:49;;;;;;;20.83;16.77;;;;;;;;;;5094977;28;20259;-81
2023/10/10 03:25:45;;;;;;;25.37;18.30;;;;;;;;;;5074865;28;20217;-81
2023/10/10 05:25:31;;;;;;;134.50;55.20;;;;;;;;;;5073543;28;20260;-82
2023/10/10 05:28:00;;;;;;;188.27;54.90;;;;;;;;;;5058901;28;20175;-82
2023/10/10 05:30:27;;;;;;;238.30;56.33;;;;;;;;;;5049030;28;20187;-82
2023/10/10 05:33:04;;;;;;;88.87;53.27;;;;;;;;;;5074486;28;20179;-82
2023/10/10 05:35:49;;;;;;;123.13;53.40;;;;;;;;;;5075678;28;20203;-83
2023/10/10 05:38:16;;;;;;;191.80;56.57;;;;;;;;;;5059353;28;20186;-83
2023/10/10 05:40:43;;;;;;;179.07;56.17;;;;;;;;;;5026545;28;20198;-83
2023/10/10 05:43:14;;;;;;;102.70;55.20;;;;;;;;;;5059891;28;20318;-83
2023/10/10 05:45:43;;;;;;;169.80;59.80;;;;;;;;;;5071245;28;20214;-83
2023/10/10 05:48:10;;;;;;;180.00;57.80;;;;;;;;;;5042189;28;20190;-83
2023/10/10 05:50:37;;;;;;;156.93;56.23;;;;;;;;;;5075732;28;20176;-83
2023/10/10 05:53:06;;;;;;;173.70;59.37;;;;;;;;;;5060075;28;20179;-82
2023/10/10 05:55:33;;;;;;;205.27;57.20;;;;;;;;;;5042220;28;20187;-83
2023/10/10 05:58:08;;;;;;;143.00;58.00;;;;;;;;;;5054633;28;20180;-82
2023/10/10 06:00:39;;;;;;;203.57;57.07;;;;;;;;;;5038859;28;20180;-82
2023/10/10 06:03:05;;;;;;;166.40;54.77;;;;;;;;;;5066857;28;20191;-82
2023/10/10 06:05:35;;;;;;;214.20;52.13;;;;;;;;;;5058839;28;20207;-81
2023/10/10 06:08:05;;;;;;;210.77;51.20;;;;;;;;;;5044529;28;20184;-82
2023/10/10 06:10:32;;;;;;;314.90;52.60;;;;;;;;;;5042615;28;20180;-82
2023/10/10 06:13:03;;;;;;;234.80;57.27;;;;;;;;;;5055677;28;20183;-82
2023/10/10 06:15:33;;;;;;;197.73;52.80;;;;;;;;;;5049745;28;20191;-82
2023/10/10 06:18:08;;;;;;;418.13;55.20;;;;;;;;;;5059003;28;20191;-82
2023/10/10 06:20:34;;;;;;;358.43;52.50;;;;;;;;;;5059722;28;20217;-83
2023/10/10 06:23:01;;;;;;;370.47;53.20;;;;;;;;;;5040998;28;20194;-83
2023/10/10 06:25:29;;;;;;;308.60;56.53;;;;;;;;;;5047511;28;20252;-83
2023/10/10 06:27:55;;;;;;;276.87;54.33;;;;;;;;;;5052688;28;20223;-83
2023/10/10 06:30:21;;;;;;;199.50;54.47;;;;;;;;;;5022119;28;20179;-83
2023/10/10 06:32:47;;;;;;;290.27;57.83;;;;;;;;;;5038100;28;20180;-82
2023/10/10 06:37:52;;;;;;;207.47;60.10;;;;;;;;;;5055300;28;20213;-83
2023/10/10 06:40:25;;;;;;;178.50;61.07;;;;;;;;;;5037741;28;20266;-83
2023/10/10 06:42:56;;;;;;;157.97;63.50;;;;;;;;;;5033743;28;20184;-83
2023/10/10 06:45:37;;;;;;;126.50;67.87;;;;;;;;;;5055217;28;20223;-83
2023/10/10 06:48:03;;;;;;;141.33;73.67;;;;;;;;;;5041806;28;20201;-83
2023/10/10 06:50:32;;;;;;;136.73;74.33;;;;;;;;;;5056091;28;20171;-82
2023/10/10 06:53:01;;;;;;;119.30;75.77;;;;;;;;;;5074341;28;20178;-82
2023/10/10 06:55:36;;;;;;;128.87;79.43;;;;;;;;;;5066930;28;20190;-82
2023/10/10 06:58:05;;;;;;;120.17;78.10;;;;;;;;;;5052282;28;20179;-82
2023/10/10 07:03:06;;;;;;;106.70;72.63;;;;;;;;;;5058194;28;20194;-83
2023/10/10 07:05:35;;;;;;;103.47;72.83;;;;;;;;;;5036653;28;20223;-83
2023/10/10 07:08:24;;;;;;;94.10;70.30;;;;;;;;;;5047327;28;20254;-83
2023/10/10 07:10:50;;;;;;;102.80;70.87;;;;;;;;;;5061983;28;20178;-82
2023/10/10 07:13:19;;;;;;;96.13;68.87;;;;;;;;;;5041036;28;20186;-83
2023/10/10 07:15:52;;;;;;;96.97;67.40;;;;;;;;;;5040618;28;20257;-82
2023/10/10 07:18:24;;;;;;;85.73;65.43;;;;;;;;;;5057225;28;20183;-82
2023/10/10 07:21:08;;;;;;;80.53;62.10;;;;;;;;;;5057293;28;20250;-82
2023/10/10 07:23:38;;;;;;;71.37;57.17;;;;;;;;;;5042681;28;20240;-82
2023/10/10 07:26:06;;;;;;;75.20;56.97;;;;;;;;;;5070408;28;20198;-82
2023/10/10 07:28:52;;;;;;;70.07;54.97;;;;;;;;;;5062130;28;20550;-82
2023/10/10 07:31:23;;;;;;;69.67;53.63;;;;;;;;;;5056935;28;20193;-82
2023/10/10 07:33:57;;;;;;;56.73;45.10;;;;;;;;;;5055976;28;20243;-84
2023/10/10 07:36:27;;;;;;;64.37;51.53;;;;;;;;;;5055928;28;20212;-83
2023/10/10 07:41:44;;;;;;;57.60;47.03;;;;;;;;;;5063925;28;20235;-83
2023/10/10 07:44:10;;;;;;;57.37;46.80;;;;;;;;;;5040603;28;20233;-82
2023/10/10 07:46:37;;;;;;;57.60;48.00;;;;;;;;;;5036319;28;20223;-83
2023/10/10 07:49:03;;;;;;;57.90;46.77;;;;;;;;;;5054392;28;20179;-82
2023/10/10 07:51:34;;;;;;;53.03;45.03;;;;;;;;;;5040439;28;20179;-83
2023/10/10 07:56:55;;;;;;;46.37;40.57;;;;;;;;;;5042991;28;20182;-82
2023/10/10 07:59:21;;;;;;;45.00;39.77;;;;;;;;;;5040379;28;20183;-83
2023/10/10 08:01:49;;;;;;;44.73;37.63;;;;;;;;;;5056837;28;20183;-84
2023/10/10 08:04:16;;;;;;;43.90;37.10;;;;;;;;;;5040568;28;20320;-84
2023/10/10 08:06:45;;;;;;;48.93;38.43;;;;;;;;;;5056554;28;20221;-84
2023/10/10 08:09:18;;;;;;;45.53;34.93;;;;;;;;;;5066597;28;20171;-84
2023/10/10 08:11:47;;;;;;;45.30;34.93;;;;;;;;;;5041090;28;20179;-83
2023/10/10 08:14:17;;;;;;;44.90;35.10;;;;;;;;;;5028693;28;20191;-83
2023/10/10 08:16:43;;;;;;;43.73;33.30;;;;;;;;;;5049411;28;20174;-83
2023/10/10 08:19:10;;;;;;;37.93;32.47;;;;;;;;;;5058862;28;20473;-83
2023/10/10 08:21:48;;;;;;;36.83;31.13;;;;;;;;;;5056330;28;20187;-83
2023/10/10 08:24:15;;;;;;;37.90;30.07;;;;;;;;;;5056270;28;20209;-85
2023/10/10 08:26:41;;;;;;;40.23;27.80;;;;;;;;;;5054162;28;20207;-84
2023/10/10 08:29:10;;;;;;;32.40;26.80;;;;;;;;;;5055177;28;20183;-84
2023/10/10 08:31:37;;;;;;;33.53;26.63;;;;;;;;;;5049563;28;20215;-85
2023/10/10 08:34:04;;;;;;;31.73;24.87;;;;;;;;;;5043729;28;20186;-84
2023/10/10 08:36:32;;;;;;;30.37;25.13;;;;;;;;;;5048492;28;20215;-84
2023/10/10 08:39:25;;;;;;;29.13;24.37;;;;;;;;;;5048077;28;20190;-84
2023/10/10 08:41:55;;;;;;;30.07;24.37;;;;;;;;;;5053483;28;20179;-85
2023/10/10 08:44:22;;;;;;;28.63;24.17;;;;;;;;;;5060494;28;20231;-85
2023/10/10 08:46:49;;;;;;;30.40;23.37;;;;;;;;;;5053662;28;20214;-85
2023/10/10 08:49:17;;;;;;;27.20;24.03;;;;;;;;;;5048263;28;20272;-84
2023/10/10 08:51:44;;;;;;;28.70;23.37;;;;;;;;;;5053782;28;20179;-84
2023/10/10 08:54:12;;;;;;;31.20;22.83;;;;;;;;;;5039457;28;20186;-84
2023/10/10 08:56:41;;;;;;;26.90;22.47;;;;;;;;;;5055823;28;20266;-84
2023/10/10 08:59:08;;;;;;;24.30;20.67;;;;;;;;;;5055533;28;20180;-82
2023/10/10 09:01:37;;;;;;;27.00;19.77;;;;;;;;;;5057872;28;20182;-85
2023/10/10 09:04:04;;;;;;;25.57;20.47;;;;;;;;;;5058992;28;20187;-84
2023/10/10 09:06:38;;;;;;;21.70;19.37;;;;;;;;;;5052447;28;20221;-85
2023/10/10 09:09:33;;;;;;;22.80;18.63;;;;;;;;;;5060011;28;20209;-84
2023/10/10 09:11:53;;;;;;;23.50;18.37;;;;;;;;;;5077184;28;20270;-85
2023/10/10 09:14:22;;;;;;;22.73;18.60;;;;;;;;;;5060107;28;20175;-84
2023/10/10 09:16:48;;;;;;;20.50;17.87;;;;;;;;;;5059334;28;20211;-85
2023/10/10 09:19:14;;;;;;;21.10;18.13;;;;;;;;;;5075783;28;20183;-84
2023/10/10 09:21:46;;;;;;;24.00;18.10;;;;;;;;;;5064839;28;20187;-84
2023/10/10 09:24:26;;;;;;;23.27;18.50;;;;;;;;;;5043445;28;20275;-84
2023/10/10 09:26:56;;;;;;;20.20;17.97;;;;;;;;;;5056393;28;20215;-84
2023/10/10 09:29:34;;;;;;;24.00;19.10;;;;;;;;;;5058922;28;20184;-85
2023/10/10 09:32:00;;;;;;;20.30;16.20;;;;;;;;;;5062379;28;20182;-84
2023/10/10 09:34:35;;;;;;;20.07;17.93;;;;;;;;;;5063196;28;20214;-84
2023/10/10 09:37:07;;;;;;;19.33;16.57;;;;;;;;;;5049123;28;20174;-83
2023/10/10 09:39:36;;;;;;;19.80;16.53;;;;;;;;;;5067506;28;20191;-83
2023/10/10 09:42:07;;;;;;;19.37;17.43;;;;;;;;;;5051596;28;20187;-84
2023/10/10 09:44:53;;;;;;;21.90;17.43;;;;;;;;;;5056321;28;20258;-85
2023/10/10 09:47:43;;;;;;;22.57;18.33;;;;;;;;;;5058077;28;20459;-87
2023/10/10 09:52:57;;;;;;;20.52;17.77;;;;;;;;;;5060908;28;20493;-84
2023/10/10 09:58:00;;;;;;;18.63;16.40;;;;;;;;;;5075534;28;20444;-84
2023/10/10 10:00:33;;;;;;;19.77;16.53;;;;;;;;;;5070697;28;20179;-84
2023/10/10 10:03:25;;;;;;;21.58;16.67;;;;;;;;;;5043344;28;20500;-84
2023/10/10 10:05:58;;;;;;;20.73;17.75;;;;;;;;;;5095277;28;20422;-84
2023/10/10 10:08:36;;;;;;;17.52;15.30;;;;;;;;;;5079228;28;20182;-83
2023/10/10 10:11:11;;;;;;;19.88;16.42;;;;;;;;;;5078613;28;20556;-82
2023/10/10 10:13:57;;;;;;;20.92;15.60;;;;;;;;;;5077600;28;20190;-83
2023/10/10 10:16:44;;;;;;;21.42;18.20;;;;;;;;;;5075884;28;20413;-84
2023/10/10 10:19:17;;;;;;;21.85;19.55;;;;;;;;;;5057939;28;20444;-85
2023/10/10 10:22:08;;;;;;;19.45;16.92;;;;;;;;;;5065004;28;20184;-84
2023/10/10 10:24:52;;;;;;;19.60;17.52;;;;;;;;;;5072305;28;20174;-84
2023/10/10 10:27:34;;;;;;;20.17;17.70;;;;;;;;;;5054508;28;20449;-83
2023/10/10 10:30:18;;;;;;;20.17;17.52;;;;;;;;;;5069526;28;20403;-83
2023/10/10 10:32:54;;;;;;;22.38;17.33;;;;;;;;;;5062385;28;20229;-83
2023/10/10 10:35:44;;;;;;;19.17;17.17;;;;;;;;;;5058397;28;20199;-83
2023/10/10 10:38:10;;;;;;;19.55;16.40;;;;;;;;;;5065027;28;20171;-84
2023/10/10 10:43:05;;;;;;;20.33;15.80;;;;;;;;;;5062854;28;20187;-83
2023/10/10 10:45:34;;;;;;;19.95;15.38;;;;;;;;;;5055050;28;20235;-83
2023/10/10 10:48:05;;;;;;;19.70;15.70;;;;;;;;;;5038600;28;20182;-84
2023/10/10 10:50:40;;;;;;;20.63;15.98;;;;;;;;;;5038123;28;20178;-83
2023/10/10 10:53:08;;;;;;;20.45;16.52;;;;;;;;;;5038082;28;20254;-84
2023/10/10 10:55:41;;;;;;;19.77;17.05;;;;;;;;;;5048452;28;20190;-85
2023/10/10 10:58:17;;;;;;;21.95;17.50;;;;;;;;;;5039267;28;20186;-83
2023/10/10 11:03:35;;;;;;;24.75;17.00;;;;;;;;;;5070432;28;20349;-84
2023/10/10 11:06:09;;;;;;;21.85;16.50;;;;;;;;;;5071114;28;20205;-85
2023/10/10 11:11:28;;;;;;;20.42;16.95;;;;;;;;;;5075397;28;20178;-86
2023/10/10 11:13:55;;;;;;;20.15;17.25;;;;;;;;;;5042358;28;20179;-86
2023/10/10 11:16:24;;;;;;;22.10;17.63;;;;;;;;;;5056880;28;20183;-85
2023/10/10 11:18:57;;;;;;;21.42;17.83;;;;;;;;;;5057328;28;20260;-83
2023/10/10 11:21:27;;;;;;;19.98;16.95;;;;;;;;;;5060282;28;20191;-83
2023/10/10 11:23:59;;;;;;;20.73;15.50;;;;;;;;;;5076691;28;20206;-83
2023/10/10 11:26:35;;;;;;;19.25;15.43;;;;;;;;;;5064571;28;20210;-82
2023/10/10 11:29:01;;;;;;;23.35;16.83;;;;;;;;;;5056568;28;20185;-82
2023/10/10 11:31:34;;;;;;;18.27;14.95;;;;;;;;;;5061778;28;20201;-82
2023/10/10 11:34:26;;;;;;;17.50;15.43;;;;;;;;;;5073549;28;20175;-83
2023/10/10 11:37:12;;;;;;;22.02;17.13;;;;;;;;;;5057540;28;20290;-83
2023/10/10 11:39:46;;;;;;;21.88;16.75;;;;;;;;;;5065674;28;20262;-83
2023/10/10 11:42:13;;;;;;;23.67;16.63;;;;;;;;;;5035517;28;20190;-84
2023/10/10 11:44:41;;;;;;;20.90;18.17;;;;;;;;;;5038851;28;20450;-86
2023/10/10 11:47:21;;;;;;;21.23;17.35;;;;;;;;;;5052969;28;20233;-88
2023/10/10 11:49:56;;;;;;;22.13;16.92;;;;;;;;;;5057004;28;20210;-83
2023/10/10 11:52:22;;;;;;;21.50;17.52;;;;;;;;;;5058859;28;20441;-84
2023/10/10 11:54:54;;;;;;;22.55;18.33;;;;;;;;;;5066974;28;20414;-85
2023/10/10 11:57:21;;;;;;;19.00;17.00;;;;;;;;;;5054977;28;20236;-87
2023/10/10 11:59:50;;;;;;;18.80;16.15;;;;;;;;;;5052962;28;20184;-87
2023/10/10 12:02:29;;;;;;;21.67;17.77;;;;;;;;;;5050325;28;20483;-86
2023/10/10 12:04:55;;;;;;;19.70;16.80;;;;;;;;;;5042062;28;20410;-85
2023/10/10 12:07:25;;;;;;;19.38;17.17;;;;;;;;;;5054617;28;20428;-86
2023/10/10 12:09:54;;;;;;;21.48;17.95;;;;;;;;;;5047661;28;20550;-85
2023/10/10 12:12:24;;;;;;;26.75;17.67;;;;;;;;;;5058139;28;20501;-85
2023/10/10 12:14:50;;;;;;;19.55;17.45;;;;;;;;;;5054087;28;20422;-86
2023/10/10 12:17:20;;;;;;;21.13;17.90;;;;;;;;;;5053440;28;20414;-85
2023/10/10 12:19:46;;;;;;;20.10;17.17;;;;;;;;;;5055354;28;20418;-85
2023/10/10 12:22:13;;;;;;;22.08;17.05;;;;;;;;;;5052624;28;20414;-85
2023/10/10 12:24:42;;;;;;;21.20;17.10;;;;;;;;;;5047911;28;20426;-84
2023/10/10 12:27:09;;;;;;;20.20;16.30;;;;;;;;;;5043379;28;20434;-86
2023/10/10 12:29:39;;;;;;;20.85;16.10;;;;;;;;;;5054797;28;20436;-85
2023/10/10 12:32:14;;;;;;;17.67;15.45;;;;;;;;;;5056729;28;20456;-86
2023/10/10 12:34:41;;;;;;;20.40;16.10;;;;;;;;;;5044138;28;20426;-84
2023/10/10 12:37:07;;;;;;;21.20;15.07;;;;;;;;;;5043640;28;20275;-86
2023/10/10 12:39:33;;;;;;;20.83;15.05;;;;;;;;;;5066084;28;20179;-85
2023/10/10 12:41:59;;;;;;;20.60;15.50;;;;;;;;;;5059996;28;20191;-85
2023/10/10 12:44:26;;;;;;;20.02;14.57;;;;;;;;;;5066422;28;20238;-85
2023/10/10 12:47:06;;;;;;;19.80;15.05;;;;;;;;;;5059776;28;20297;-87
2023/10/10 12:49:44;;;;;;;24.08;16.00;;;;;;;;;;5065525;28;20286;-85
2023/10/10 12:52:16;;;;;;;18.13;15.23;;;;;;;;;;5058727;28;20183;-87
2023/10/10 12:54:46;;;;;;;20.15;15.30;;;;;;;;;;5062558;28;20179;-84
2023/10/10 12:57:15;;;;;;;19.33;15.65;;;;;;;;;;5039081;28;20215;-83
2023/10/10 12:59:46;;;;;;;17.55;14.48;;;;;;;;;;5059749;28;20210;-84
2023/10/10 13:02:15;;;;;;;19.60;15.18;;;;;;;;;;5071735;28;20175;-84
2023/10/10 13:04:45;;;;;;;18.48;14.68;;;;;;;;;;5049705;28;20184;-82
2023/10/10 13:07:12;;;;;;;20.25;15.35;;;;;;;;;;5044316;28;20203;-83
2023/10/10 13:09:43;;;;;;;17.80;15.25;;;;;;;;;;5062148;28;20186;-84
2023/10/10 13:12:18;;;;;;;19.33;15.35;;;;;;;;;;5057995;28;20187;-83
2023/10/10 13:14:50;;;;;;;17.83;15.00;;;;;;;;;;5040145;28;20172;-83
2023/10/10 13:19:54;;;;;;;17.38;13.15;;;;;;;;;;5072749;28;20211;-85
2023/10/10 13:22:25;;;;;;;21.25;14.88;;;;;;;;;;5041478;28;20188;-87
2023/10/10 13:24:53;;;;;;;23.83;14.35;;;;;;;;;;5045430;28;20183;-88
2023/10/10 13:27:21;;;;;;;16.48;13.02;;;;;;;;;;5071206;28;20256;-86
2023/10/10 13:29:48;;;;;;;22.20;16.10;;;;;;;;;;5057055;28;20423;-84
2023/10/10 13:32:14;;;;;;;19.27;15.63;;;;;;;;;;5045574;28;20438;-87
2023/10/10 13:34:40;;;;;;;19.58;14.90;;;;;;;;;;5057968;28;20429;-87
2023/10/10 13:37:07;;;;;;;19.88;15.18;;;;;;;;;;5042994;28;20435;-86
2023/10/10 13:39:47;;;;;;;18.55;14.75;;;;;;;;;;5052016;28;20424;-85
2023/10/10 13:42:21;;;;;;;20.52;15.05;;;;;;;;;;5059565;28;20472;-90
2023/10/10 13:44:48;;;;;;;18.85;14.63;;;;;;;;;;5060282;28;20446;-86
2023/10/10 13:47:24;;;;;;;15.88;12.68;;;;;;;;;;5052468;28;20306;-89
2023/10/10 13:50:13;;;;;;;15.20;13.00;;;;;;;;;;5058821;28;20421;-87
2023/10/10 13:52:38;;;;;;;18.25;13.18;;;;;;;;;;5068550;28;20430;-86
2023/10/10 13:55:04;;;;;;;14.85;12.40;;;;;;;;;;5064721;28;20433;-84
2023/10/10 13:57:30;;;;;;;21.05;12.35;;;;;;;;;;5029700;28;20455;-85
2023/10/10 13:59:56;;;;;;;18.20;13.05;;;;;;;;;;5057302;28;20430;-85
2023/10/10 14:02:25;;;;;;;16.15;11.63;;;;;;;;;;5047382;28;20179;-85
2023/10/10 14:04:51;;;;;;;20.73;11.30;;;;;;;;;;5066538;28;20286;-85
2023/10/10 14:07:18;;;;;;;13.77;10.98;;;;;;;;;;5041593;28;20190;-85
2023/10/10 14:09:48;;;;;;;16.95;11.10;;;;;;;;;;5061278;28;20418;-86
2023/10/10 14:12:20;;;;;;;15.85;11.13;;;;;;;;;;5061253;28;20171;-85
2023/10/10 14:14:48;;;;;;;16.85;11.38;;;;;;;;;;5049606;28;20179;-86
2023/10/10 14:17:15;;;;;;;17.10;10.98;;;;;;;;;;5059442;28;20202;-89
2023/10/10 14:19:41;;;;;;;15.45;10.93;;;;;;;;;;5060561;28;20175;-85
2023/10/10 14:22:10;;;;;;;14.55;11.40;;;;;;;;;;5038517;28;20290;-86
2023/10/10 14:24:36;;;;;;;14.65;10.35;;;;;;;;;;5055426;28;20172;-86
2023/10/10 14:27:02;;;;;;;15.15;10.73;;;;;;;;;;5061300;28;20290;-84
2023/10/10 14:29:40;;;;;;;16.17;10.60;;;;;;;;;;5037477;28;20422;-83
2023/10/10 14:32:10;;;;;;;15.45;11.40;;;;;;;;;;5042484;28;20472;-83
2023/10/10 14:34:38;;;;;;;15.55;11.05;;;;;;;;;;5056553;28;20414;-85
2023/10/10 14:37:04;;;;;;;14.48;11.38;;;;;;;;;;5055975;28;20517;-83
2023/10/10 14:39:31;;;;;;;14.23;11.60;;;;;;;;;;5046400;28;20434;-83
2023/10/10 14:41:58;;;;;;;16.33;11.52;;;;;;;;;;5058648;28;20483;-83
2023/10/10 14:44:27;;;;;;;16.20;11.27;;;;;;;;;;5063294;28;20443;-84
2023/10/10 14:47:04;;;;;;;15.07;11.48;;;;;;;;;;5057068;28;20430;-83
2023/10/10 14:49:31;;;;;;;16.60;11.32;;;;;;;;;;5043141;28;20398;-83
2023/10/10 14:52:03;;;;;;;14.27;10.63;;;;;;;;;;5048889;28;20226;-83
2023/10/10 14:54:29;;;;;;;14.75;10.18;;;;;;;;;;5057550;28;20171;-83
2023/10/10 14:56:55;;;;;;;14.82;11.18;;;;;;;;;;5041313;28;20191;-83
2023/10/10 14:59:31;;;;;;;15.48;10.45;;;;;;;;;;5041879;28;20187;-83
2023/10/10 15:01:59;;;;;;;17.33;10.50;;;;;;;;;;5057034;28;20211;-84
2023/10/10 15:04:28;;;;;;;13.73;9.82;;;;;;;;;;5061117;28;20191;-86
2023/10/10 15:06:55;;;;;;;16.05;10.63;;;;;;;;;;5058671;28;20286;-83
2023/10/10 15:09:23;;;;;;;14.52;9.93;;;;;;;;;;5056748;28;20178;-85
2023/10/10 15:11:50;;;;;;;13.02;9.82;;;;;;;;;;5057358;28;20178;-85
2023/10/10 15:14:19;;;;;;;15.55;10.07;;;;;;;;;;5046110;28;20175;-84
2023/10/10 15:16:47;;;;;;;19.67;10.00;;;;;;;;;;5038557;28;20515;-84
2023/10/10 15:19:13;;;;;;;14.32;9.27;;;;;;;;;;5041543;28;20198;-82
2023/10/10 15:21:40;;;;;;;14.98;10.38;;;;;;;;;;5045973;28;20505;-83
2023/10/10 15:24:12;;;;;;;16.38;10.70;;;;;;;;;;5053341;28;20491;-84
2023/10/10 15:26:40;;;;;;;14.80;10.30;;;;;;;;;;5048534;28;20435;-83
2023/10/10 15:29:10;;;;;;;13.85;9.60;;;;;;;;;;5051034;28;20418;-82
2023/10/10 15:31:36;;;;;;;13.30;9.60;;;;;;;;;;5026430;28;20416;-82
2023/10/10 15:34:03;;;;;;;14.77;9.20;;;;;;;;;;5021026;28;20416;-83
2023/10/10 15:36:30;;;;;;;14.20;9.20;;;;;;;;;;5053799;28;20425;-83
2023/10/10 15:39:05;;;;;;;13.05;9.30;;;;;;;;;;5060024;28;20441;-83
2023/10/10 15:41:35;;;;;;;12.38;8.82;;;;;;;;;;5043374;28;20568;-82
2023/10/10 15:44:06;;;;;;;13.83;9.27;;;;;;;;;;5040247;28;20434;-83
2023/10/10 15:46:36;;;;;;;13.05;8.48;;;;;;;;;;5056841;28;20467;-84
2023/10/10 15:49:08;;;;;;;16.02;8.57;;;;;;;;;;5041264;28;20238;-83
2023/10/10 15:51:37;;;;;;;11.70;8.15;;;;;;;;;;5036605;28;20180;-83
2023/10/10 15:54:04;;;;;;;12.48;8.70;;;;;;;;;;5058244;28;20175;-84
2023/10/10 15:56:30;;;;;;;11.18;7.90;;;;;;;;;;5056857;28;20187;-83
2023/10/10 15:59:00;;;;;;;11.85;8.48;;;;;;;;;;5043512;28;20184;-83
2023/10/10 16:01:30;;;;;;;13.10;8.10;;;;;;;;;;5037660;28;20192;-82
2023/10/10 16:04:00;;;;;;;17.00;8.05;;;;;;;;;;5072850;28;20172;-82
2023/10/10 16:06:27;;;;;;;12.10;8.02;;;;;;;;;;5042443;28;20227;-83
2023/10/10 16:08:54;;;;;;;13.35;8.32;;;;;;;;;;5035353;28;20183;-83
2023/10/10 16:11:20;;;;;;;14.10;8.30;;;;;;;;;;5042686;28;20179;-84
2023/10/10 16:13:50;;;;;;;13.35;7.88;;;;;;;;;;5061795;28;20179;-83
2023/10/10 16:16:18;;;;;;;12.73;7.78;;;;;;;;;;5036493;28;20188;-82
2023/10/10 16:18:45;;;;;;;13.52;7.90;;;;;;;;;;5048219;28;20199;-84
2023/10/10 16:21:13;;;;;;;12.25;7.43;;;;;;;;;;5054208;28;20265;-84
2023/10/10 16:23:43;;;;;;;10.13;7.20;;;;;;;;;;5038920;28;20185;-83
2023/10/10 16:26:12;;;;;;;10.50;7.03;;;;;;;;;;5058489;28;20206;-84
2023/10/10 16:28:38;;;;;;;9.65;7.15;;;;;;;;;;5055423;28;20184;-85
2023/10/10 16:31:08;;;;;;;12.82;6.97;;;;;;;;;;5036621;28;20179;-84
2023/10/10 16:33:38;;;;;;;11.43;6.50;;;;;;;;;;5051365;28;20187;-83
2023/10/10 16:36:20;;;;;;;13.02;7.03;;;;;;;;;;5058920;28;20203;-84
2023/10/10 16:38:49;;;;;;;13.63;6.87;;;;;;;;;;5063489;28;20183;-84
2023/10/10 16:41:15;;;;;;;10.45;6.55;;;;;;;;;;5053539;28;20262;-86
2023/10/10 16:43:41;;;;;;;12.33;6.60;;;;;;;;;;5038070;28;20282;-84
2023/10/10 16:46:09;;;;;;;17.23;6.93;;;;;;;;;;5045858;28;20287;-84
2023/10/10 16:48:38;;;;;;;13.47;6.83;;;;;;;;;;5048991;28;20195;-87
2023/10/10 16:51:26;;;;;;;15.30;6.87;;;;;;;;;;5065786;28;20179;-82
2023/10/10 16:53:56;;;;;;;12.20;7.13;;;;;;;;;;5041837;28;20187;-83
2023/10/10 16:56:22;;;;;;;14.82;7.35;;;;;;;;;;5051338;28;20463;-82
2023/10/10 16:58:51;;;;;;;11.27;6.53;;;;;;;;;;5055472;28;20179;-82
2023/10/10 17:01:20;;;;;;;11.97;6.97;;;;;;;;;;5051564;28;20191;-82
2023/10/10 17:03:53;;;;;;;15.82;7.72;;;;;;;;;;5057169;28;20410;-81
2023/10/10 17:06:22;;;;;;;11.27;7.47;;;;;;;;;;5055848;28;20214;-82
2023/10/10 17:08:52;;;;;;;13.25;7.13;;;;;;;;;;5039376;28;20214;-81
2023/10/10 17:11:21;;;;;;;11.23;6.97;;;;;;;;;;5075695;28;20265;-81
2023/10/10 17:13:49;;;;;;;13.20;7.10;;;;;;;;;;5044232;28;20176;-81
2023/10/10 17:16:17;;;;;;;11.57;7.37;;;;;;;;;;5073455;28;20187;-82
2023/10/10 17:18:44;;;;;;;11.43;7.50;;;;;;;;;;5055933;28;20175;-82
2023/10/10 17:21:13;;;;;;;12.53;7.17;;;;;;;;;;5046380;28;20176;-82
2023/10/10 17:23:46;;;;;;;17.53;7.33;;;;;;;;;;5049697;28;20194;-82
2023/10/10 17:26:12;;;;;;;12.57;6.87;;;;;;;;;;5044116;28;20230;-81
2023/10/10 17:28:41;;;;;;;13.43;7.10;;;;;;;;;;5042636;28;20179;-82